PWSweather.com
Personal Weather Stations
Station Observations
BLACKWELL
Blackwell, AlfretonGB DE55

BlackwellAlfretonGB DE55

Lat: 53.12076, Lon: -1.354978

Elevation: 410

Station Type: Vantage Pro

High Low Average
Temperature 85.8°F29.9°C 56.3°F13.5°C 72.0°F22.2°C
Dew Point 63.0°F17.2°C 54.9°F12.7°C 59.8°F15.4°C
Winds 1.0 mph 1.6 kmh Calm Calm Calm ECalm E
Wind Gusts 5.0 mph8.0 kmh -- 1.0 mph1.6 kmh
Humidity 96% 43% 68%
Pressure 30.24 in1024.0 mb 30.14 in1020.7 mb -
Precipitation 0.00 in0.0 mm - -
Hour Temp Dew Point Humidity Winds Wind Gusts Pressure Precip Precip Rate Daily Precip Total
12:55 AM 59.7°F15.4°C 56.5°F13.6°C 89% Calm Calm -- 30.24 in1024.0 mb 0.00 in0.0 mm 0.00 in0.0 mm 0.00 in0.0 mm
01:55 AM 57.7°F14.3°C 54.9°F12.7°C 90% Calm Calm -- 30.24 in1024.0 mb 0.00 in0.0 mm 0.00 in0.0 mm 0.00 in0.0 mm
02:55 AM 57.0°F13.9°C 55.0°F12.8°C 93% Calm Calm -- 30.23 in1023.7 mb 0.00 in0.0 mm 0.00 in0.0 mm 0.00 in0.0 mm
03:55 AM 56.7°F13.7°C 54.9°F12.7°C 94% Calm Calm -- 30.23 in1023.7 mb 0.00 in0.0 mm 0.00 in0.0 mm 0.00 in0.0 mm
04:55 AM 56.3°F13.5°C 54.9°F12.7°C 95% Calm Calm -- 30.23 in1023.7 mb 0.00 in0.0 mm 0.00 in0.0 mm 0.00 in0.0 mm
05:55 AM 58.8°F14.9°C 57.7°F14.3°C 96% Calm Calm -- 30.23 in1023.7 mb 0.00 in0.0 mm 0.00 in0.0 mm 0.00 in0.0 mm
06:55 AM 63.7°F17.6°C 60.1°F15.6°C 88% Calm Calm -- 30.24 in1024.0 mb 0.00 in0.0 mm 0.00 in0.0 mm 0.00 in0.0 mm
07:55 AM 68.5°F20.3°C 59.9°F15.5°C 74% Calm Calm 3.0 mph4.8 kmh 30.23 in1023.7 mb 0.00 in0.0 mm 0.00 in0.0 mm 0.00 in0.0 mm
08:55 AM 72.1°F22.3°C 61.0°F16.1°C 68% Calm Calm 4.0 mph6.4 kmh 30.23 in1023.7 mb 0.00 in0.0 mm 0.00 in0.0 mm 0.00 in0.0 mm
09:55 AM 76.5°F24.7°C 61.9°F16.6°C 61% 1.0 mph SSW1.6 kmh SSW 4.0 mph6.4 kmh 30.22 in1023.4 mb 0.00 in0.0 mm 0.00 in0.0 mm 0.00 in0.0 mm
10:55 AM 79.5°F26.4°C 62.4°F16.9°C 56% 1.0 mph SSW1.6 kmh SSW 5.0 mph8.0 kmh 30.21 in1023.0 mb 0.00 in0.0 mm 0.00 in0.0 mm 0.00 in0.0 mm
11:55 AM 82.2°F27.9°C 62.8°F17.1°C 52% Calm Calm 3.0 mph4.8 kmh 30.20 in1022.7 mb 0.00 in0.0 mm 0.00 in0.0 mm 0.00 in0.0 mm
12:55 PM 84.9°F29.4°C 63.0°F17.2°C 48% 1.0 mph SSW1.6 kmh SSW 2.0 mph3.2 kmh 30.18 in1022.0 mb 0.00 in0.0 mm 0.00 in0.0 mm 0.00 in0.0 mm
01:55 PM 85.5°F29.7°C 60.6°F15.9°C 43% 1.0 mph S1.6 kmh S 4.0 mph6.4 kmh 30.18 in1022.0 mb 0.00 in0.0 mm 0.00 in0.0 mm 0.00 in0.0 mm
02:55 PM 85.8°F29.9°C 60.8°F16.0°C 43% 1.0 mph S1.6 kmh S 4.0 mph6.4 kmh 30.17 in1021.7 mb 0.00 in0.0 mm 0.00 in0.0 mm 0.00 in0.0 mm
03:55 PM 84.2°F29.0°C 61.2°F16.2°C 46% Calm Calm 2.0 mph3.2 kmh 30.16 in1021.3 mb 0.00 in0.0 mm 0.00 in0.0 mm 0.00 in0.0 mm
04:55 PM 82.2°F27.9°C 60.6°F15.9°C 48% Calm Calm 1.0 mph1.6 kmh 30.15 in1021.0 mb 0.00 in0.0 mm 0.00 in0.0 mm 0.00 in0.0 mm
05:55 PM 81.9°F27.7°C 61.5°F16.4°C 50% Calm Calm 1.0 mph1.6 kmh 30.15 in1021.0 mb 0.00 in0.0 mm 0.00 in0.0 mm 0.00 in0.0 mm
06:55 PM 78.8°F26.0°C 61.7°F16.5°C 56% Calm Calm -- 30.14 in1020.7 mb 0.00 in0.0 mm 0.00 in0.0 mm 0.00 in0.0 mm
07:55 PM 75.6°F24.2°C 60.8°F16.0°C 60% Calm Calm -- 30.14 in1020.7 mb 0.00 in0.0 mm 0.00 in0.0 mm 0.00 in0.0 mm
08:55 PM 73.9°F23.3°C 61.0°F16.1°C 64% Calm Calm -- 30.14 in1020.7 mb 0.00 in0.0 mm 0.00 in0.0 mm 0.00 in0.0 mm
09:55 PM 70.7°F21.5°C 61.2°F16.2°C 72% Calm Calm -- 30.15 in1021.0 mb 0.00 in0.0 mm 0.00 in0.0 mm 0.00 in0.0 mm
10:55 PM 69.3°F20.7°C 61.0°F16.1°C 75% Calm Calm 1.0 mph1.6 kmh 30.15 in1021.0 mb 0.00 in0.0 mm 0.00 in0.0 mm 0.00 in0.0 mm
11:55 PM 66.7°F19.3°C 60.3°F15.7°C 80% Calm Calm -- 30.15 in1021.0 mb 0.00 in0.0 mm 0.00 in0.0 mm 0.00 in0.0 mm